Time;durP1;ratioP1;P1;durP2;ratioP2;P2;SDS_P1;SDS_P2;PMS_P1;PMS_P2;Temp;Humidity;BMP_temperature;BMP_pressure;BME280_temperature;BME280_humidity;BME280_pressure;Samples;Min_cycle;Max_cycle;Signal;HPM_P1;HPM_P2
2023/04/30 00:01:41;;;;;;;8.70;5.45;;;;;;;;;;5052412;28;20067;-48
2023/04/30 00:04:07;;;;;;;8.30;5.13;;;;;;;;;;5053228;28;20055;-44
2023/04/30 00:06:33;;;;;;;12.10;5.70;;;;;;;;;;5054104;28;20795;-48
2023/04/30 00:08:59;;;;;;;15.80;5.38;;;;;;;;;;5058062;28;20124;-45
2023/04/30 00:11:25;;;;;;;8.70;4.80;;;3.60;99.90;;;;;;5057368;28;20051;-48
2023/04/30 00:13:52;;;;;;;12.57;5.68;;;;;;;;;;5038188;28;20040;-46
2023/04/30 00:16:18;;;;;;;10.90;4.82;;;;;;;;;;5055769;28;20119;-46
2023/04/30 00:18:44;;;;;;;11.50;5.68;;;;;;;;;;5055700;28;20048;-47
2023/04/30 00:21:10;;;;;;;10.80;4.85;;;;;;;;;;5055224;28;20045;-48
2023/04/30 00:23:36;;;;;;;10.30;4.85;;;;;;;;;;5055424;28;20052;-49
2023/04/30 00:26:02;;;;;;;8.50;4.95;;;;;;;;;;5037710;28;20087;-46
2023/04/30 00:28:28;;;;;;;8.18;4.72;;;;;;;;;;5055945;28;20151;-45
2023/04/30 00:30:55;;;;;;;8.32;4.70;;;;;;;;;;5054921;28;20048;-44
2023/04/30 00:33:21;;;;;;;8.60;5.25;;;;;;;;;;5056038;28;20784;-44
2023/04/30 00:35:47;;;;;;;8.45;5.03;;;;;;;;;;5036573;28;20045;-46
2023/04/30 00:38:12;;;;;;;11.57;5.78;;;3.70;99.90;;;;;;5055931;28;20096;-44
2023/04/30 00:40:40;;;;;;;8.05;4.80;;;3.50;99.90;;;;;;5055682;28;20595;-47
2023/04/30 00:43:07;;;;;;;11.20;4.80;;;;;;;;;;5055738;28;20085;-45
2023/04/30 00:45:33;;;;;;;14.10;5.30;;;;;;;;;;5056135;28;20068;-46
2023/04/30 00:47:59;;;;;;;7.13;4.50;;;;;;;;;;5056612;28;20055;-45
2023/04/30 00:50:25;;;;;;;8.35;5.30;;;;;;;;;;5037687;28;20040;-44
2023/04/30 00:52:52;;;;;;;10.63;5.50;;;;;;;;;;5055865;28;20058;-46
2023/04/30 00:55:18;;;;;;;10.52;6.15;;;;;;;;;;5037544;28;20063;-45
2023/04/30 00:57:45;;;;;;;9.05;5.18;;;;;;;;;;5055818;28;20197;-50
2023/04/30 01:00:12;;;;;;;7.18;4.00;;;3.40;99.90;;;;;;5055149;28;20048;-45
2023/04/30 01:02:39;;;;;;;11.50;4.88;;;;;;;;;;5056261;28;20457;-45
2023/04/30 01:05:06;;;;;;;11.70;4.97;;;3.50;99.90;;;;;;5055683;28;20068;-45
2023/04/30 01:07:34;;;;;;;11.32;4.95;;;3.40;99.90;;;;;;5054714;28;20040;-45
2023/04/30 01:10:00;;;;;;;11.00;5.93;;;3.50;99.90;;;;;;5056908;28;20044;-44
2023/04/30 01:12:54;;;;;;;10.25;5.25;;;3.40;99.90;;;;;;5054691;28;20126;-44
2023/04/30 01:15:20;;;;;;;15.40;7.22;;;;;;;;;;5037883;28;20063;-46
2023/04/30 01:18:02;;;;;;;9.45;4.60;;;3.20;99.90;;;;;;5036518;28;20040;-46
2023/04/30 01:20:29;;;;;;;12.20;5.85;;;;;;;;;;5053659;28;20036;-45
2023/04/30 01:23:38;;;;;;;10.65;5.55;;;3.10;99.90;;;;;;5053425;28;20066;-45
2023/04/30 01:26:22;;;;;;;9.93;5.10;;;3.20;99.90;;;;;;4989939;28;20567;-46
2023/04/30 01:28:51;;;;;;;9.95;5.25;;;3.30;99.90;;;;;;5054264;28;20075;-46
2023/04/30 01:31:19;;;;;;;9.65;4.75;;;3.30;99.90;;;;;;5053998;28;20068;-44
2023/04/30 01:33:46;;;;;;;7.97;4.32;;;;;;;;;;5054448;28;20053;-46
2023/04/30 01:36:24;;;;;;;11.38;5.10;;;3.40;99.90;;;;;;5054989;28;20201;-44
2023/04/30 01:39:18;;;;;;;8.68;5.15;;;3.50;99.90;;;;;;5036566;28;20135;-45
2023/04/30 01:42:02;;;;;;;7.75;5.18;;;3.40;99.90;;;;;;5054435;28;20055;-44
2023/04/30 01:44:59;;;;;;;7.70;4.35;;;3.40;99.90;;;;;;5034877;28;20437;-48
2023/04/30 01:47:25;;;;;;;16.17;5.72;;;;;;;;;;5054031;28;20040;-44
2023/04/30 01:50:27;;;;;;;8.20;4.90;;;3.60;99.90;;;;;;5053485;28;20052;-45
2023/04/30 01:52:58;;;;;;;8.93;5.22;;;3.70;99.90;;;;;;5036327;28;20163;-44
2023/04/30 01:55:33;;;;;;;11.00;4.68;;;3.70;99.90;;;;;;5053370;28;20048;-45
2023/04/30 01:58:01;;;;;;;6.90;4.38;;;3.80;99.90;;;;;;5053975;28;20079;-43
2023/04/30 02:00:31;;;;;;;11.23;5.13;;;3.90;99.90;;;;;;5036270;28;20041;-47
2023/04/30 02:02:58;;;;;;;19.15;7.03;;;;;;;;;;5054323;28;20060;-46
2023/04/30 02:05:24;;;;;;;12.15;6.43;;;;;;;;;;5054361;28;20075;-44
2023/04/30 02:07:51;;;;;;;14.63;5.63;;;4.10;99.90;;;;;;5036286;28;20062;-43
2023/04/30 02:10:23;;;;;;;9.05;5.78;;;4.10;99.90;;;;;;5055398;28;20060;-45
2023/04/30 02:12:49;;;;;;;17.67;5.93;;;4.20;99.90;;;;;;5054159;28;20037;-44
2023/04/30 02:15:15;;;;;;;10.90;5.85;;;4.20;99.90;;;;;;5053390;28;20042;-44
2023/04/30 02:17:41;;;;;;;14.25;5.38;;;;;;;;;;5054059;28;20628;-45
2023/04/30 02:20:07;;;;;;;11.55;6.10;;;4.30;99.90;;;;;;5055113;28;20486;-44
2023/04/30 02:22:34;;;;;;;11.85;6.47;;;;;;;;;;5052907;28;20044;-54
2023/04/30 02:24:59;;;;;;;15.02;6.32;;;4.30;99.90;;;;;;5054043;28;20052;-48
2023/04/30 02:27:25;;;;;;;8.82;5.00;;;4.20;99.90;;;;;;5053064;28;20432;-48
2023/04/30 02:29:52;;;;;;;10.95;5.00;;;4.40;99.90;;;;;;5052980;28;20048;-43
2023/04/30 02:32:18;;;;;;;16.17;6.75;;;4.40;99.90;;;;;;5053330;28;20064;-44
2023/04/30 02:34:44;;;;;;;13.00;6.13;;;4.50;99.90;;;;;;5034164;28;20053;-43
2023/04/30 02:37:10;;;;;;;11.70;6.53;;;;;;;;;;5052634;28;20056;-44
2023/04/30 02:39:37;;;;;;;23.23;9.05;;;;;;;;;;5053043;28;20055;-45
2023/04/30 02:42:03;;;;;;;10.90;7.20;;;4.60;99.90;;;;;;5054414;28;20029;-48
2023/04/30 02:44:29;;;;;;;12.57;6.90;;;4.60;99.90;;;;;;5033791;28;20048;-48
2023/04/30 02:46:54;;;;;;;13.73;6.97;;;4.60;99.90;;;;;;5053934;28;20051;-47
2023/04/30 02:49:20;;;;;;;12.57;7.50;;;4.70;99.90;;;;;;5052517;28;20048;-46
2023/04/30 02:51:46;;;;;;;14.10;7.07;;;;;;;;;;5052936;28;20032;-48
2023/04/30 02:54:12;;;;;;;14.02;6.95;;;4.50;99.90;;;;;;5052157;28;22238;-48
2023/04/30 02:56:38;;;;;;;12.40;7.72;;;;;;;;;;5053282;28;20138;-48
2023/04/30 02:59:04;;;;;;;15.63;6.40;;;4.70;99.90;;;;;;5052171;28;20083;-49
2023/04/30 03:01:30;;;;;;;12.43;6.95;;;;;;;;;;5052768;28;20375;-45
2023/04/30 03:03:57;;;;;;;12.27;7.40;;;4.70;99.90;;;;;;5051606;28;20044;-48
2023/04/30 03:06:23;;;;;;;16.58;7.72;;;4.80;99.90;;;;;;5053124;28;20051;-48
2023/04/30 03:08:49;;;;;;;17.60;8.38;;;4.70;99.90;;;;;;5054083;28;20040;-47
2023/04/30 03:11:15;;;;;;;11.57;6.55;;;;;;;;;;5053853;28;20467;-48
2023/04/30 03:13:42;;;;;;;12.88;7.07;;;4.80;99.90;;;;;;5053004;28;20055;-47
2023/04/30 03:16:08;;;;;;;14.27;7.15;;;4.70;99.90;;;;;;5053597;28;20052;-47
2023/04/30 03:18:34;;;;;;;18.13;7.93;;;;;;;;;;5052953;28;20110;-47
2023/04/30 03:21:00;;;;;;;19.02;7.65;;;;;;;;;;5052989;28;20058;-49
2023/04/30 03:23:27;;;;;;;12.25;6.93;;;4.90;99.90;;;;;;5053560;28;20240;-46
2023/04/30 03:25:52;;;;;;;14.80;6.78;;;5.00;99.90;;;;;;5053403;28;20088;-47
2023/04/30 03:28:18;;;;;;;13.93;7.88;;;5.00;99.90;;;;;;5052691;28;20573;-49
2023/04/30 03:30:44;;;;;;;12.60;7.30;;;4.90;99.90;;;;;;5051236;28;20642;-48
2023/04/30 03:33:10;;;;;;;14.40;7.13;;;4.90;99.90;;;;;;5053758;28;20040;-48
2023/04/30 03:35:36;;;;;;;12.82;6.55;;;;;;;;;;5053164;28;20048;-48
2023/04/30 03:38:02;;;;;;;16.38;6.80;;;;;;;;;;5052310;28;20048;-47
2023/04/30 03:40:28;;;;;;;16.48;6.38;;;5.00;99.90;;;;;;5038309;28;20048;-49
2023/04/30 03:42:54;;;;;;;17.10;7.05;;;5.00;99.90;;;;;;5056799;28;20053;-51
2023/04/30 03:45:20;;;;;;;14.48;7.43;;;5.00;99.90;;;;;;5057116;28;20418;-47
2023/04/30 03:47:46;;;;;;;13.93;7.70;;;5.00;99.90;;;;;;5056357;28;20205;-49
2023/04/30 03:50:12;;;;;;;14.88;6.65;;;5.00;99.90;;;;;;5056875;28;20047;-50
2023/04/30 03:52:38;;;;;;;10.45;6.07;;;4.70;99.90;;;;;;5057291;28;20471;-48
2023/04/30 03:55:04;;;;;;;13.75;6.25;;;4.90;99.90;;;;;;5039601;28;20052;-50
2023/04/30 03:57:31;;;;;;;13.80;6.03;;;5.00;99.90;;;;;;5055404;28;20056;-47
2023/04/30 03:59:57;;;;;;;13.45;6.40;;;;;;;;;;5055988;28;20868;-47
2023/04/30 04:02:24;;;;;;;17.98;7.13;;;4.90;99.90;;;;;;5056044;28;20060;-47
2023/04/30 04:04:50;;;;;;;17.50;7.32;;;4.90;99.90;;;;;;5055948;28;20044;-44
2023/04/30 04:07:16;;;;;;;11.75;5.82;;;;;;;;;;5055701;28;20090;-49
2023/04/30 04:09:42;;;;;;;14.40;6.35;;;4.70;99.90;;;;;;5055330;28;20055;-46
2023/04/30 04:12:08;;;;;;;9.85;7.15;;;4.60;99.90;;;;;;5056769;28;20041;-45
2023/04/30 04:14:34;;;;;;;16.85;6.75;;;;;;;;;;5056533;28;20616;-46
2023/04/30 04:17:00;;;;;;;13.68;5.68;;;4.80;99.90;;;;;;5055414;28;20040;-45
2023/04/30 04:19:27;;;;;;;15.77;6.03;;;;;;;;;;5055550;28;20124;-44
2023/04/30 04:21:53;;;;;;;15.88;6.18;;;;;;;;;;5055016;28;20633;-47
2023/04/30 04:24:19;;;;;;;15.98;7.50;;;;;;;;;;5056238;28;20102;-44
2023/04/30 04:26:45;;;;;;;12.20;6.68;;;4.40;99.90;;;;;;5055074;28;20049;-48
2023/04/30 04:29:11;;;;;;;12.38;6.40;;;4.40;99.90;;;;;;5055494;28;20044;-43
2023/04/30 04:31:37;;;;;;;16.23;7.88;;;4.50;99.90;;;;;;5057059;28;20492;-43
2023/04/30 04:34:04;;;;;;;13.02;6.93;;;4.60;99.90;;;;;;5056105;28;20110;-48
2023/04/30 04:36:32;;;;;;;12.98;7.03;;;4.60;99.90;;;;;;5055900;28;20125;-43
2023/04/30 04:39:01;;;;;;;17.08;6.90;;;4.70;99.90;;;;;;5055306;28;20040;-44
2023/04/30 04:41:36;;;;;;;16.17;6.93;;;4.80;99.90;;;;;;5039332;28;20348;-44
2023/04/30 04:44:03;;;;;;;13.27;6.72;;;4.70;99.90;;;;;;5054743;28;20052;-46
2023/04/30 04:46:37;;;;;;;10.35;6.07;;;4.90;99.90;;;;;;5055455;28;20052;-48
2023/04/30 04:49:03;;;;;;;13.23;6.97;;;6.00;99.90;;;;;;5054520;28;20631;-48
2023/04/30 04:51:29;;;;;;;12.85;6.25;;;5.10;99.90;;;;;;5055038;28;20186;-45
2023/04/30 04:53:55;;;;;;;11.65;5.95;;;5.00;99.90;;;;;;5037562;28;20032;-43
2023/04/30 04:56:21;;;;;;;14.55;7.72;;;;;;;;;;5054053;28;20182;-48
2023/04/30 04:58:46;;;;;;;14.63;6.60;;;5.30;99.90;;;;;;5036607;28;20213;-45
2023/04/30 05:01:12;;;;;;;14.00;7.18;;;5.40;99.90;;;;;;5053872;28;20048;-45
2023/04/30 05:03:38;;;;;;;12.02;5.85;;;5.80;99.90;;;;;;5054773;28;20040;-44
2023/04/30 05:06:04;;;;;;;16.83;6.03;;;5.70;99.90;;;;;;5036724;28;20052;-45
2023/04/30 05:08:30;;;;;;;12.32;5.25;;;6.00;99.90;;;;;;5038280;28;20444;-44
2023/04/30 05:10:56;;;;;;;15.48;5.97;;;5.90;99.90;;;;;;5055868;28;20040;-45
2023/04/30 05:13:22;;;;;;;14.55;5.35;;;6.00;99.90;;;;;;5054022;28;20066;-44
2023/04/30 05:15:52;;;;;;;11.45;4.90;;;6.00;99.90;;;;;;5036293;28;20033;-44
2023/04/30 05:18:18;;;;;;;13.20;4.78;;;5.90;99.90;;;;;;5036550;28;20342;-45
2023/04/30 05:20:44;;;;;;;17.67;5.57;;;6.00;99.90;;;;;;5053980;28;20057;-45
2023/04/30 05:23:10;;;;;;;12.95;5.50;;;6.00;99.90;;;;;;5053923;28;20051;-45
2023/04/30 05:25:36;;;;;;;13.05;5.40;;;6.10;99.90;;;;;;5054225;28;20052;-44
2023/04/30 05:28:02;;;;;;;9.95;4.97;;;6.90;99.90;;;;;;5055245;28;20047;-47
2023/04/30 05:30:28;;;;;;;12.70;5.22;;;7.10;99.90;;;;;;5054645;28;20531;-44
2023/04/30 05:32:55;;;;;;;13.88;5.60;;;6.30;99.90;;;;;;5053808;28;20804;-45
2023/04/30 05:35:21;;;;;;;16.88;5.25;;;6.40;99.90;;;;;;5053287;28;20445;-44
2023/04/30 05:37:47;;;;;;;10.18;4.10;;;6.40;99.90;;;;;;5053853;28;20704;-44
2023/04/30 05:40:14;;;;;;;12.35;5.47;;;6.40;99.90;;;;;;5054282;28;20055;-45
2023/04/30 05:42:42;;;;;;;16.80;4.88;;;6.60;99.90;;;;;;5037868;28;20071;-48
2023/04/30 05:45:08;;;;;;;14.65;4.32;;;8.30;99.90;;;;;;5054133;28;20086;-47
2023/04/30 05:47:34;;;;;;;12.60;5.32;;;6.50;99.90;;;;;;5054336;28;20059;-47
2023/04/30 05:50:00;;;;;;;13.32;4.70;;;7.30;99.90;;;;;;5055000;28;20740;-46
2023/04/30 05:52:26;;;;;;;16.25;4.82;;;6.70;99.90;;;;;;5054566;28;20222;-45
2023/04/30 05:54:52;;;;;;;13.05;4.55;;;6.80;99.90;;;;;;5053607;28;20040;-46
2023/04/30 05:57:18;;;;;;;12.38;4.80;;;6.70;99.90;;;;;;5055335;28;20109;-48
2023/04/30 05:59:44;;;;;;;10.35;4.22;;;8.40;99.90;;;;;;5053719;28;20048;-46
2023/04/30 06:02:10;;;;;;;16.02;4.68;;;7.30;99.90;;;;;;5053688;28;20047;-46
2023/04/30 06:04:35;;;;;;;13.55;4.15;;;6.80;99.90;;;;;;5052968;28;20052;-45
2023/04/30 06:07:01;;;;;;;12.18;4.03;;;6.90;99.90;;;;;;5055059;28;20044;-46
2023/04/30 06:09:27;;;;;;;18.27;4.65;;;6.90;99.90;;;;;;5036160;28;20485;-48
2023/04/30 06:11:54;;;;;;;12.95;4.80;;;9.10;99.90;;;;;;5037553;28;20067;-48
2023/04/30 06:14:21;;;;;;;11.98;4.53;;;7.80;99.90;;;;;;5052706;28;20079;-45
2023/04/30 06:16:48;;;;;;;15.45;4.63;;;7.00;99.90;;;;;;5053958;28;20044;-47
2023/04/30 06:19:14;;;;;;;14.63;4.20;;;7.10;99.90;;;;;;5053579;28;20052;-44
2023/04/30 06:21:42;;;;;;;17.35;4.93;;;7.20;99.90;;;;;;5053079;28;20555;-49
2023/04/30 06:24:08;;;;;;;14.65;4.38;;;9.20;99.90;;;;;;5034089;28;20325;-45
2023/04/30 06:26:33;;;;;;;19.50;4.20;;;7.70;99.90;;;;;;5053534;28;20045;-44
2023/04/30 06:28:59;;;;;;;13.00;5.60;;;8.90;99.90;;;;;;5033901;28;20083;-43
2023/04/30 06:31:25;;;;;;;14.77;4.35;;;6.20;99.90;;;;;;5051832;28;20041;-46
2023/04/30 06:33:51;;;;;;;17.98;3.92;;;8.50;99.90;;;;;;5052409;28;20436;-45
2023/04/30 06:36:18;;;;;;;13.60;3.00;;;8.80;99.90;;;;;;5051554;28;20048;-50
2023/04/30 06:38:46;;;;;;;16.17;3.47;;;9.00;99.90;;;;;;5046781;28;20467;-48
2023/04/30 06:41:12;;;;;;;14.23;3.28;;;8.80;99.90;;;;;;5049514;28;20041;-46
2023/04/30 06:43:38;;;;;;;14.93;2.97;;;8.80;99.90;;;;;;5053888;28;20501;-47
2023/04/30 06:46:05;;;;;;;12.85;3.13;;;9.20;99.90;;;;;;5052502;28;20214;-49
2023/04/30 06:48:31;;;;;;;16.73;3.67;;;9.60;99.90;;;;;;5053005;28;20050;-46
2023/04/30 06:50:57;;;;;;;11.35;2.70;;;9.70;99.90;;;;;;5051081;28;20045;-46
2023/04/30 06:53:23;;;;;;;13.35;3.03;;;10.40;99.90;;;;;;5033730;28;20048;-48
2023/04/30 06:55:51;;;;;;;11.13;3.03;;;10.80;99.90;;;;;;5051279;28;20060;-47
2023/04/30 06:58:17;;;;;;;12.98;2.72;;;10.40;99.90;;;;;;5051784;28;20113;-45
2023/04/30 07:00:43;;;;;;;15.48;3.45;;;10.70;99.90;;;;;;5033121;28;20048;-48
2023/04/30 07:03:09;;;;;;;13.43;3.10;;;10.50;99.90;;;;;;5050946;28;20063;-48
2023/04/30 07:05:34;;;;;;;13.68;2.50;;;10.50;99.90;;;;;;5052328;28;20044;-47
2023/04/30 07:08:02;;;;;;;10.48;2.75;;;10.50;99.90;;;;;;5051628;28;20127;-45
2023/04/30 07:10:28;;;;;;;12.38;2.55;;;10.50;99.90;;;;;;5035540;28;20040;-45
2023/04/30 07:12:54;;;;;;;11.93;2.78;;;10.60;99.90;;;;;;5019109;28;20044;-48
2023/04/30 07:15:20;;;;;;;7.45;2.67;;;10.60;99.90;;;;;;5054160;28;20048;-48
2023/04/30 07:17:46;;;;;;;12.52;3.17;;;10.40;99.90;;;;;;5037904;28;20701;-44
2023/04/30 07:20:13;;;;;;;8.27;2.25;;;10.30;99.90;;;;;;5055061;28;20032;-49
2023/04/30 07:22:45;;;;;;;11.90;2.63;;;10.10;99.90;;;;;;5057652;28;20059;-47
2023/04/30 07:25:14;;;;;;;11.55;2.67;;;10.30;99.90;;;;;;5037231;28;20232;-48
2023/04/30 07:27:40;;;;;;;11.32;2.40;;;10.30;99.90;;;;;;5058086;28;20505;-47
2023/04/30 07:30:09;;;;;;;12.35;3.00;;;10.20;99.90;;;;;;5054158;28;20044;-47
2023/04/30 07:32:36;;;;;;;11.20;2.50;;;10.40;99.90;;;;;;5055939;28;20435;-44
2023/04/30 07:35:02;;;;;;;17.25;2.63;;;10.40;99.90;;;;;;5056091;28;20033;-44
2023/04/30 07:37:28;;;;;;;11.60;2.92;;;10.60;99.90;;;;;;5056845;28;20582;-45
2023/04/30 07:39:54;;;;;;;12.93;2.80;;;10.30;99.90;;;;;;5055315;28;20044;-47
2023/04/30 07:42:20;;;;;;;16.75;2.60;;;10.30;99.90;;;;;;5055585;28;20131;-45
2023/04/30 07:44:47;;;;;;;10.65;2.40;;;10.70;99.90;;;;;;5055200;28;20135;-45
2023/04/30 07:47:13;;;;;;;11.52;2.67;;;10.60;99.90;;;;;;5055600;28;20116;-45
2023/04/30 07:49:40;;;;;;;11.77;2.45;;;10.80;99.90;;;;;;5055292;28;20125;-45
2023/04/30 07:52:09;;;;;;;13.20;2.95;;;10.80;99.90;;;;;;5055619;28;20044;-47
2023/04/30 07:54:37;;;;;;;9.07;2.42;;;10.90;99.90;;;;;;5055913;28;20125;-46
2023/04/30 07:57:04;;;;;;;16.48;2.88;;;11.10;99.90;;;;;;5055248;28;20055;-49
2023/04/30 07:59:30;;;;;;;12.15;2.72;;;11.30;99.90;;;;;;5055982;28;20037;-44
2023/04/30 08:01:56;;;;;;;12.95;2.80;;;11.20;99.90;;;;;;5055345;28;20052;-44
2023/04/30 08:04:22;;;;;;;11.43;2.53;;;11.20;99.90;;;;;;5054088;28;20048;-45
2023/04/30 08:06:47;;;;;;;12.65;2.65;;;9.40;99.90;;;;;;5055351;28;20549;-43
2023/04/30 08:09:14;;;;;;;10.75;2.13;;;11.30;99.90;;;;;;5036338;28;20044;-45
2023/04/30 08:11:40;;;;;;;8.95;1.83;;;11.40;99.90;;;;;;5054913;28;20045;-45
2023/04/30 08:14:06;;;;;;;7.32;1.98;;;11.20;99.90;;;;;;5055993;28;20068;-48
2023/04/30 08:16:35;;;;;;;12.73;2.42;;;11.30;99.90;;;;;;5055008;28;20146;-44
2023/04/30 08:19:00;;;;;;;10.35;2.40;;;13.20;99.90;;;;;;5055679;28;20123;-47
2023/04/30 08:21:27;;;;;;;11.27;2.00;;;11.80;99.90;;;;;;5053592;28;20044;-55
2023/04/30 08:23:53;;;;;;;5.75;2.10;;;12.00;99.90;;;;;;5054148;28;20084;-52
2023/04/30 08:26:20;;;;;;;10.07;3.00;;;12.20;99.90;;;;;;5052893;28;20075;-54
2023/04/30 08:28:45;;;;;;;11.98;3.13;;;12.40;99.90;;;;;;5035423;28;20131;-54
2023/04/30 08:31:12;;;;;;;12.80;2.08;;;12.70;99.90;;;;;;5055570;28;20081;-55
2023/04/30 08:33:38;;;;;;;10.45;2.50;;;12.60;99.90;;;;;;5054994;28;20044;-55
2023/04/30 08:36:04;;;;;;;12.85;2.58;;;12.50;99.90;;;;;;5055110;28;20565;-54
2023/04/30 08:38:30;;;;;;;10.45;2.25;;;12.80;99.90;;;;;;5054557;28;20060;-55
2023/04/30 08:41:08;;;;;;;10.25;3.13;;;12.70;99.90;;;;;;5055391;28;20174;-55
2023/04/30 08:43:34;;;;;;;10.30;2.40;;;12.50;99.90;;;;;;5056670;28;20055;-55
2023/04/30 08:46:01;;;;;;;11.50;2.42;;;12.50;99.90;;;;;;5054301;28;20109;-55
2023/04/30 08:48:28;;;;;;;10.38;2.10;;;12.60;99.90;;;;;;5054289;28;20048;-55
2023/04/30 08:50:54;;;;;;;8.88;2.00;;;12.70;99.90;;;;;;5054103;28;20316;-55
2023/04/30 08:53:21;;;;;;;10.10;2.00;;;12.60;99.90;;;;;;5054896;28;20070;-55
2023/04/30 08:55:47;;;;;;;6.65;1.92;;;12.30;99.90;;;;;;5053727;28;20040;-55
2023/04/30 08:58:13;;;;;;;12.82;2.20;;;12.70;99.90;;;;;;5052883;28;20049;-54
2023/04/30 09:00:39;;;;;;;11.50;2.67;;;12.30;99.90;;;;;;5054253;28;20040;-54
2023/04/30 09:03:06;;;;;;;9.30;2.90;;;12.50;99.90;;;;;;5037151;28;20234;-55
2023/04/30 09:05:33;;;;;;;10.23;2.47;;;12.60;99.90;;;;;;5054189;28;20101;-55
2023/04/30 09:07:58;;;;;;;9.75;2.08;;;12.70;99.90;;;;;;5054133;28;20584;-55
2023/04/30 09:10:24;;;;;;;11.15;2.13;;;12.90;99.90;;;;;;5054668;28;20052;-57
2023/04/30 09:13:10;;;;;;;9.95;2.50;;;12.70;99.90;;;;;;5055312;28;20044;-55
2023/04/30 09:15:40;;;;;;;11.00;2.22;;;12.80;99.90;;;;;;5054270;28;20060;-55
2023/04/30 09:18:19;;;;;;;12.57;2.03;;;13.10;99.90;;;;;;5035923;28;20102;-55
2023/04/30 09:21:00;;;;;;;8.50;2.10;;;13.10;99.90;;;;;;5054451;28;20063;-55
2023/04/30 09:23:27;;;;;;;11.80;2.75;;;13.20;99.90;;;;;;5053292;28;20048;-55
2023/04/30 09:25:53;;;;;;;7.32;2.30;;;12.90;99.90;;;;;;5054057;28;20040;-55
2023/04/30 09:28:23;;;;;;;10.57;2.10;;;13.00;99.90;;;;;;5053307;28;20040;-54
2023/04/30 09:30:49;;;;;;;8.57;2.30;;;13.10;99.90;;;;;;5052645;28;20052;-54
2023/04/30 09:33:15;;;;;;;12.88;2.33;;;13.20;99.90;;;;;;5035402;28;20048;-55
2023/04/30 09:35:41;;;;;;;11.75;2.03;;;13.20;99.90;;;;;;5052687;28;21287;-55
2023/04/30 09:38:23;;;;;;;11.88;2.65;;;13.30;99.90;;;;;;5052189;28;20493;-48
2023/04/30 09:40:49;;;;;;;11.52;2.20;;;13.40;99.90;;;;;;5052723;28;20060;-46
2023/04/30 09:43:15;;;;;;;9.77;2.08;;;13.50;99.90;;;;;;5054467;28;20513;-48
2023/04/30 09:45:50;;;;;;;8.45;2.10;;;13.50;99.90;;;;;;5054928;28;20212;-48
2023/04/30 09:48:29;;;;;;;6.97;1.70;;;13.40;99.90;;;;;;5053949;28;20057;-48
2023/04/30 09:50:55;;;;;;;9.15;2.40;;;13.60;99.90;;;;;;5037346;28;20075;-49
2023/04/30 09:53:22;;;;;;;5.70;1.83;;;13.70;99.90;;;;;;5054521;28;20127;-45
2023/04/30 09:55:49;;;;;;;9.40;2.30;;;13.90;99.90;;;;;;5054336;28;20044;-49
2023/04/30 09:58:17;;;;;;;8.13;2.15;;;13.70;99.90;;;;;;5054299;28;20521;-48
2023/04/30 10:00:44;;;;;;;8.60;2.65;;;14.00;99.90;;;;;;5035959;28;20143;-47
2023/04/30 10:03:12;;;;;;;8.70;2.63;;;14.10;99.90;;;;;;5054448;28;20079;-48
2023/04/30 10:05:49;;;;;;;9.43;2.20;;;14.50;99.90;;;;;;5054204;28;20198;-47
2023/04/30 10:08:29;;;;;;;7.68;2.00;;;14.60;99.90;;;;;;5053804;28;20048;-48
2023/04/30 10:11:03;;;;;;;6.78;2.05;;;15.00;99.90;;;;;;5053931;28;20129;-51
2023/04/30 10:13:32;;;;;;;8.63;2.38;;;14.90;99.90;;;;;;5055147;28;20048;-48
2023/04/30 10:16:03;;;;;;;11.85;2.45;;;15.20;99.90;;;;;;5035920;28;20497;-48
2023/04/30 10:18:35;;;;;;;7.73;2.43;;;15.30;99.90;;;;;;5054509;28;20460;-49
2023/04/30 10:21:10;;;;;;;6.78;2.20;;;15.10;99.90;;;;;;5053273;28;20044;-48
2023/04/30 10:23:42;;;;;;;7.70;2.55;;;15.40;99.90;;;;;;5053009;28;20324;-48
2023/04/30 10:26:11;;;;;;;10.25;2.40;;;15.50;99.90;;;;;;5053642;28;20049;-49
2023/04/30 10:28:37;;;;;;;6.32;2.10;;;15.40;99.90;;;;;;5052248;28;20041;-47
2023/04/30 10:31:06;;;;;;;12.00;2.38;;;15.40;99.90;;;;;;5053090;28;20036;-49
2023/04/30 10:34:00;;;;;;;7.60;2.00;;;15.20;99.90;;;;;;5052963;28;20052;-49
2023/04/30 10:36:40;;;;;;;5.35;1.52;;;15.00;99.90;;;;;;5034654;28;20508;-46
2023/04/30 10:39:06;;;;;;;12.25;3.03;;;15.00;99.90;;;;;;5053680;28;20146;-50
2023/04/30 10:41:32;;;;;;;11.40;2.40;;;15.20;99.90;;;;;;5053886;28;20631;-47
2023/04/30 10:44:01;;;;;;;6.97;2.10;;;15.30;99.90;;;;;;5053651;28;20044;-49
2023/04/30 10:46:27;;;;;;;7.95;1.90;;;15.50;99.90;;;;;;5053113;28;20043;-47
2023/04/30 10:48:54;;;;;;;7.03;2.08;;;15.70;99.90;;;;;;5032141;28;20088;-47
2023/04/30 10:51:20;;;;;;;9.95;2.47;;;15.90;99.90;;;;;;5049552;28;20615;-49
2023/04/30 10:53:53;;;;;;;6.15;2.05;;;16.00;99.90;;;;;;5050815;28;20076;-46
2023/04/30 10:56:31;;;;;;;7.25;2.20;;;16.10;99.90;;;;;;5051379;28;20040;-50
2023/04/30 10:59:04;;;;;;;7.80;2.10;;;16.20;99.90;;;;;;5032917;28;20053;-49
2023/04/30 11:01:32;;;;;;;8.30;2.53;;;16.00;99.90;;;;;;5052184;28;20048;-50
2023/04/30 11:04:10;;;;;;;9.48;2.65;;;16.10;99.90;;;;;;5033707;28;20033;-49
2023/04/30 11:07:06;;;;;;;7.35;2.63;;;16.40;99.90;;;;;;5033150;28;20151;-51
2023/04/30 11:09:37;;;;;;;7.88;2.20;;;16.50;99.90;;;;;;5051711;28;20055;-49
2023/04/30 11:12:09;;;;;;;9.13;2.47;;;16.60;99.90;;;;;;5051380;28;20051;-47
2023/04/30 11:14:42;;;;;;;8.05;2.35;;;16.40;99.90;;;;;;5033983;28;20119;-48
2023/04/30 11:17:21;;;;;;;7.28;2.40;;;16.50;99.90;;;;;;5033646;28;20131;-46
2023/04/30 11:19:51;;;;;;;8.57;2.38;;;16.60;99.90;;;;;;5031641;28;20063;-49
2023/04/30 11:22:20;;;;;;;6.35;2.42;;;16.60;99.90;;;;;;5051311;28;20045;-48
2023/04/30 11:24:58;;;;;;;6.80;2.38;;;17.00;99.90;;;;;;5017486;28;20048;-45
2023/04/30 11:27:28;;;;;;;5.97;1.80;;;16.90;99.90;;;;;;5051906;28;20591;-47
2023/04/30 11:29:55;;;;;;;6.03;1.88;;;16.90;99.90;;;;;;5034017;28;20053;-46
2023/04/30 11:32:22;;;;;;;7.40;2.50;;;16.80;99.90;;;;;;5034426;28;20048;-49
2023/04/30 11:34:49;;;;;;;4.82;1.83;;;16.80;99.90;;;;;;5051894;28;20123;-45
2023/04/30 11:37:33;;;;;;;10.10;2.40;;;16.80;99.90;;;;;;5051570;28;20579;-46
2023/04/30 11:40:01;;;;;;;6.95;1.90;;;19.00;99.90;;;;;;5051708;28;20036;-47
2023/04/30 11:42:29;;;;;;;5.80;2.08;;;16.90;99.90;;;;;;5017987;28;20451;-46
2023/04/30 11:45:05;;;;;;;6.32;2.03;;;16.50;99.90;;;;;;5035518;28;20047;-47
2023/04/30 11:47:57;;;;;;;6.00;2.40;;;16.70;99.90;;;;;;5053058;28;20041;-46
2023/04/30 11:50:28;;;;;;;;;;;16.80;99.90;;;;;;5048206;28;20083;-45
2023/04/30 11:52:56;;;;;;;6.68;2.10;;;16.80;99.90;;;;;;5051488;28;20812;-46
2023/04/30 11:55:24;;;;;;;8.43;2.83;;;16.90;99.90;;;;;;5053068;28;21235;-46
2023/04/30 11:57:53;;;;;;;8.02;2.08;;;16.80;99.90;;;;;;5052329;28;20044;-48
2023/04/30 12:00:21;;;;;;;6.07;2.20;;;16.60;99.90;;;;;;5050965;28;20429;-47
2023/04/30 12:02:48;;;;;;;5.88;2.20;;;16.90;99.90;;;;;;5036743;28;20837;-45
2023/04/30 12:05:15;;;;;;;7.28;2.35;;;17.00;99.90;;;;;;5053685;28;20058;-45
2023/04/30 12:07:55;;;;;;;4.95;1.80;;;16.80;99.90;;;;;;5036710;28;20131;-46
2023/04/30 12:10:22;;;;;;;9.77;2.38;;;16.80;99.90;;;;;;5054655;28;20043;-48
2023/04/30 12:12:50;;;;;;;6.40;1.92;;;16.90;99.90;;;;;;5055220;28;20044;-46
2023/04/30 12:15:25;;;;;;;5.78;1.70;;;17.00;99.90;;;;;;5056313;28;20064;-46
2023/04/30 12:17:51;;;;;;;5.85;1.92;;;17.00;99.90;;;;;;5054547;28;20040;-46
2023/04/30 12:20:17;;;;;;;5.75;2.20;;;17.20;99.90;;;;;;5037597;28;20056;-48
2023/04/30 12:22:44;;;;;;;5.60;1.75;;;16.80;99.90;;;;;;5037609;28;20056;-49
2023/04/30 12:25:21;;;;;;;5.88;1.70;;;16.70;99.90;;;;;;5054729;28;20043;-45
2023/04/30 12:27:49;;;;;;;4.70;1.55;;;16.50;99.90;;;;;;5054509;28;20174;-50
2023/04/30 12:30:18;;;;;;;6.47;1.80;;;16.70;99.90;;;;;;5054662;28;20489;-46
2023/04/30 12:32:45;;;;;;;5.50;2.05;;;16.70;99.90;;;;;;5037460;28;20400;-47
2023/04/30 12:35:16;;;;;;;6.88;2.10;;;16.50;99.90;;;;;;5053738;28;20052;-47
2023/04/30 12:37:47;;;;;;;4.18;1.48;;;16.50;99.90;;;;;;5054594;28;20056;-47
2023/04/30 12:40:13;;;;;;;6.03;1.63;;;16.30;99.90;;;;;;5054100;28;20045;-48
2023/04/30 12:42:41;;;;;;;4.13;1.73;;;16.40;99.90;;;;;;5054862;28;20048;-45
2023/04/30 12:45:08;;;;;;;5.38;1.60;;;16.40;99.90;;;;;;5055769;28;20045;-49
2023/04/30 12:47:40;;;;;;;5.55;1.85;;;16.20;99.90;;;;;;5055268;28;20127;-48
2023/04/30 12:50:13;;;;;;;6.18;1.83;;;16.30;99.90;;;;;;5054023;28;20044;-45
2023/04/30 12:52:39;;;;;;;6.20;1.98;;;16.50;99.90;;;;;;5053367;28;20052;-46
2023/04/30 12:55:19;;;;;;;5.22;1.58;;;16.60;99.90;;;;;;5052317;28;20052;-45
2023/04/30 12:58:05;;;;;;;6.22;2.03;;;16.80;99.90;;;;;;5053437;28;20059;-49
2023/04/30 13:00:51;;;;;;;4.63;1.40;;;16.80;99.90;;;;;;5053476;28;20139;-45
2023/04/30 13:03:23;;;;;;;5.82;1.80;;;16.70;99.90;;;;;;5054563;28;20178;-45
2023/04/30 13:05:51;;;;;;;6.00;2.03;;;16.80;99.90;;;;;;5053840;28;20470;-45
2023/04/30 13:08:18;;;;;;;4.28;1.58;;;16.80;99.90;;;;;;5055033;28;20504;-45